Strona główna
METAR-TAF:

METAR-TAF

Lotnisko :

Hettinger Municipal Airport

Hettinger, Dakota Północna, Stany Zjednoczone

Szerokość geograficzna: 46-00-38N, Długość geograficzna: 102-38-59W, wysokość: 824 m

Aktualna obserwacja pogody

Raport powstał 36 minut temu, godzina 02:53 UTC
Wiatr 6 kt od północny zachód
Temperatura -13°C
Wilgotność 92%
Ciśnienie 1015 hPa
Widzialność: 16.1 km
bezchmurnie

METAR: KHEI 240253Z AUTO 32006KT 10SM CLR M13/M14 A2997 RMK AO2 SLP202 T11331139 51018

czas: 20:29 (03:29 UTC)


TAF: brakujący

Obserwacja i prognoza pogody dla ponad 4000 lotnisk (raport METAR i TAF).

Dostępne stacje oznaczono żółtymi i czerwonymi punktami na mapie.

Najedź kursorem aby zobaczyć nazwę stacji.

Kliknij aby zobaczyć obserwacje i prognozy pogody.

Aby zmienić mapę: kliknij na zielony przycisk z czarnym krzyżykiem, aby powiększyć; na zielony przycisk z myślnikiem, aby pomniejszyć; na zielone strzałki, aby przejść do map sąsiednich.


METAR-TAF: